Time;durP1;ratioP1;P1;durP2;ratioP2;P2;SDS_P1;SDS_P2;PMS_P1;PMS_P2;Temp;Humidity;BMP_temperature;BMP_pressure;BME280_temperature;BME280_humidity;BME280_pressure;Samples;Min_cycle;Max_cycle;Signal;HPM_P1;HPM_P2
2022/08/14 00:00:28;;;;;;;2.60;2.40;;;;;;;22.77;36.56;98918.28;4908142;29;20996;-79
2022/08/14 00:02:53;;;;;;;2.60;2.40;;;;;;;22.62;36.79;98913.00;4901934;29;20264;-79
2022/08/14 00:05:20;;;;;;;2.90;2.37;;;;;;;22.48;37.12;98918.22;4906848;29;20259;-79
2022/08/14 00:07:47;;;;;;;2.30;2.10;;;;;;;22.26;37.27;98922.75;4913758;29;20245;-79
2022/08/14 00:10:16;;;;;;;2.27;2.07;;;;;;;22.15;37.72;98922.38;4909188;29;20471;-79
2022/08/14 00:12:52;;;;;;;2.47;2.20;;;;;;;22.07;38.07;98920.66;4896193;29;20983;-79
2022/08/14 00:15:27;;;;;;;3.30;3.10;;;;;;;22.00;38.02;98917.88;4905754;29;20482;-79
2022/08/14 00:17:53;;;;;;;3.37;2.67;;;;;;;21.97;38.18;98922.78;4902311;29;21044;-79
2022/08/14 00:20:27;;;;;;;2.73;2.23;;;;;;;21.92;38.35;98917.16;4907610;29;20477;-79
2022/08/14 00:22:53;;;;;;;2.60;2.40;;;;;;;21.85;38.38;98925.94;4912562;29;20563;-79
2022/08/14 00:25:18;;;;;;;2.60;2.40;;;;;;;21.78;38.43;98914.34;4914545;29;20466;-79
2022/08/14 00:27:44;;;;;;;2.90;2.63;;;;;;;21.72;38.83;98917.75;4937601;29;20614;-79
2022/08/14 00:30:11;;;;;;;3.17;2.87;;;;;;;21.64;38.97;98918.69;4943288;29;20464;-79
2022/08/14 00:32:37;;;;;;;2.60;2.17;;;;;;;21.60;39.24;98921.91;4934440;29;20489;-79
2022/08/14 00:35:04;;;;;;;3.10;2.80;;;;;;;21.57;39.40;98916.94;4948970;29;20226;-79
2022/08/14 00:37:31;;;;;;;3.93;2.00;;;;;;;21.58;39.39;98907.91;4942628;29;20459;-79
2022/08/14 00:39:56;;;;;;;3.10;2.90;;;;;;;21.62;39.24;98918.03;4943739;29;20468;-79
2022/08/14 00:42:22;;;;;;;2.73;2.23;;;;;;;21.69;38.82;98920.81;4940606;29;20450;-79
2022/08/14 00:44:48;;;;;;;3.37;2.50;;;;;;;21.73;39.00;98916.72;4935319;29;20617;-79
2022/08/14 00:47:15;;;;;;;2.37;2.20;;;;;;;21.75;39.10;98924.59;4949123;28;20784;-79
2022/08/14 00:49:42;;;;;;;3.10;2.70;;;;;;;21.71;38.93;98923.28;4936845;29;20233;-79
2022/08/14 00:52:08;;;;;;;2.90;2.60;;;;;;;21.71;38.97;98929.47;4947712;29;20960;-79
2022/08/14 00:54:37;;;;;;;3.73;2.60;;;;;;;21.68;39.27;98920.97;4933974;29;20898;-79
2022/08/14 00:57:02;;;;;;;3.83;2.60;;;;;;;21.64;39.38;98920.53;4923316;29;20478;-79
2022/08/14 00:59:28;;;;;;;3.27;3.03;;;;;;;21.63;39.66;98918.88;4946368;29;20540;-79
2022/08/14 01:01:56;;;;;;;2.63;2.43;;;;;;;21.59;39.53;98923.75;4937651;29;20227;-79
2022/08/14 01:04:22;;;;;;;2.70;2.50;;;;;;;21.59;39.42;98921.09;4940071;29;20241;-79
2022/08/14 01:06:50;;;;;;;3.53;3.23;;;;;;;21.55;39.78;98913.63;4951333;28;20680;-79
2022/08/14 01:09:18;;;;;;;4.03;2.77;;;;;;;21.50;39.95;98905.34;4950416;29;20233;-79
2022/08/14 01:11:44;;;;;;;2.77;2.57;;;;;;;21.42;40.22;98907.09;4947839;29;20485;-79
2022/08/14 01:14:10;;;;;;;2.87;2.50;;;;;;;21.41;40.45;98904.59;4951342;29;20962;-79
2022/08/14 01:16:35;;;;;;;3.77;3.17;;;;;;;21.35;40.38;98906.13;4949750;29;20297;-79
2022/08/14 01:21:46;;;;;;;4.93;3.77;;;;;;;21.19;40.95;98891.09;4931277;29;20255;-79
2022/08/14 01:24:14;;;;;;;4.00;3.60;;;;;;;21.01;41.63;98901.34;4932481;29;20458;-79
2022/08/14 01:26:40;;;;;;;4.50;4.10;;;;;;;20.85;42.01;98896.97;4938393;28;21622;-79
2022/08/14 01:29:06;;;;;;;5.07;2.90;;;;;;;20.67;42.15;98889.28;4952071;29;20476;-79
2022/08/14 01:31:37;;;;;;;3.50;2.83;;;;;;;20.45;42.76;98885.59;4946819;29;20465;-79
2022/08/14 01:34:04;;;;;;;3.13;2.83;;;;;;;20.30;42.96;98882.84;4951455;29;20212;-79
2022/08/14 01:36:37;;;;;;;2.40;2.20;;;;;;;20.22;42.91;98882.09;4943012;29;20963;-79
2022/08/14 01:39:15;;;;;;;4.03;2.37;;;;;;;20.18;43.00;98867.47;4938655;29;20464;-78
2022/08/14 01:41:48;;;;;;;3.87;2.70;;;;;;;20.18;42.96;98864.81;4934611;29;20501;-79
2022/08/14 01:44:14;;;;;;;3.10;2.80;;;;;;;20.21;42.89;98867.94;4942869;29;20506;-78
2022/08/14 01:46:43;;;;;;;4.97;2.90;;;;;;;20.19;43.35;98853.13;4944941;28;20514;-78
2022/08/14 01:49:14;;;;;;;3.20;2.87;;;;;;;20.10;43.70;98850.50;4933635;29;20559;-78
2022/08/14 01:51:42;;;;;;;2.80;2.13;;;;;;;20.02;44.02;98844.41;4937266;29;20464;-79
2022/08/14 01:54:13;;;;;;;6.10;3.30;;;;;;;19.96;44.19;98845.94;4939714;29;20526;-78
2022/08/14 01:56:39;;;;;;;3.80;2.80;;;;;;;19.88;44.34;98848.66;4932528;29;20571;-78
2022/08/14 01:59:18;;;;;;;5.23;3.63;;;;;;;19.67;44.99;98844.78;4938756;29;20494;-78
2022/08/14 02:01:45;;;;;;;3.60;2.90;;;;;;;19.54;45.21;98836.47;4948325;29;20481;-79
2022/08/14 02:04:11;;;;;;;2.90;2.50;;;;;;;19.48;45.53;98836.34;4940668;29;20544;-79
2022/08/14 02:06:37;;;;;;;3.17;2.87;;;;;;;19.40;45.84;98838.03;4938282;29;20503;-78
2022/08/14 02:09:07;;;;;;;2.60;2.40;;;;;;;19.31;46.07;98827.59;4943599;29;20260;-78
2022/08/14 02:11:34;;;;;;;3.33;3.03;;;;;;;19.30;46.07;98820.63;4950914;29;20439;-79
2022/08/14 02:14:03;;;;;;;2.53;2.33;;;;;;;19.32;46.05;98823.94;4946101;29;20433;-79
2022/08/14 02:16:32;;;;;;;2.50;2.30;;;;;;;19.27;46.35;98816.47;4940916;28;20509;-79
2022/08/14 02:19:01;;;;;;;3.17;2.70;;;;;;;19.24;46.14;98811.47;4937005;29;20450;-79
2022/08/14 02:21:31;;;;;;;3.70;3.40;;;;;;;19.24;46.55;98809.66;4938956;29;20448;-79
2022/08/14 02:24:00;;;;;;;3.30;3.00;;;;;;;19.17;46.47;98799.84;4944985;29;20488;-79
2022/08/14 02:26:32;;;;;;;2.90;2.70;;;;;;;19.10;47.02;98805.06;4938000;28;20578;-79
2022/08/14 02:29:05;;;;;;;3.47;3.23;;;;;;;18.98;47.24;98798.44;4946673;29;20454;-79
2022/08/14 02:31:35;;;;;;;3.47;3.17;;;;;;;18.92;47.47;98801.78;4943682;29;21067;-79
2022/08/14 02:34:09;;;;;;;3.63;3.33;;;;;;;18.90;47.54;98804.63;4953938;29;20447;-78
2022/08/14 02:36:36;;;;;;;2.40;2.20;;;;;;;18.88;47.45;98801.31;4938594;29;20501;-78
2022/08/14 02:39:04;;;;;;;3.47;3.17;;;;;;;18.93;47.11;98808.75;4945277;29;20535;-79
2022/08/14 02:41:31;;;;;;;3.00;2.30;;;;;;;18.89;47.30;98786.16;4944187;29;20452;-79
2022/08/14 02:43:57;;;;;;;2.87;2.67;;;;;;;18.87;47.58;98793.47;4935831;29;20521;-78
2022/08/14 02:46:22;;;;;;;3.00;2.80;;;;;;;18.86;47.37;98783.84;4940323;29;21090;-79
2022/08/14 02:48:47;;;;;;;2.90;2.60;;;;;;;18.84;47.46;98778.69;4941216;29;20540;-79
2022/08/14 02:51:13;;;;;;;3.17;2.97;;;;;;;18.85;47.28;98772.38;4948527;29;20233;-79
2022/08/14 02:53:43;;;;;;;2.60;2.40;;;;;;;18.87;47.06;98765.03;4946967;29;20187;-79
2022/08/14 02:56:09;;;;;;;3.70;3.40;;;;;;;18.87;47.27;98764.22;4941590;28;20429;-79
2022/08/14 02:58:38;;;;;;;2.53;2.33;;;;;;;18.83;47.24;98755.75;4944873;29;20454;-79
2022/08/14 03:01:07;;;;;;;3.23;2.80;;;;;;;18.81;47.26;98754.25;4944043;29;21000;-79
2022/08/14 03:03:35;;;;;;;3.20;3.00;;;;;;;18.73;47.76;98753.22;4945492;29;20453;-79
2022/08/14 03:06:01;;;;;;;3.00;2.80;;;;;;;18.67;47.93;98742.47;4946540;29;20461;-79
2022/08/14 03:08:30;;;;;;;3.57;3.27;;;;;;;18.60;47.98;98738.81;4947870;29;20444;-78
2022/08/14 03:10:57;;;;;;;3.20;2.90;;;;;;;18.50;48.54;98739.84;4936580;29;21027;-78
2022/08/14 03:13:23;;;;;;;2.50;2.30;;;;;;;18.39;48.78;98744.66;4940228;29;20431;-79
2022/08/14 03:15:52;;;;;;;3.30;3.00;;;;;;;18.34;48.87;98735.38;4946183;29;20427;-78
2022/08/14 03:18:22;;;;;;;4.23;3.17;;;;;;;18.35;48.64;98731.72;4936668;28;20455;-78
2022/08/14 03:20:48;;;;;;;2.70;2.50;;;;;;;18.34;48.53;98727.41;4936887;29;20488;-79
2022/08/14 03:23:14;;;;;;;3.47;2.30;;;;;;;18.30;48.97;98726.06;4941061;29;20452;-79
2022/08/14 03:25:40;;;;;;;3.30;2.80;;;;;;;18.30;49.08;98726.06;4951615;29;20622;-79
2022/08/14 03:28:06;;;;;;;3.73;3.37;;;;;;;18.30;48.95;98734.03;4948997;28;20685;-79
2022/08/14 03:30:33;;;;;;;3.83;3.07;;;;;;;18.33;48.87;98739.06;4952336;29;20185;-79
2022/08/14 03:32:58;;;;;;;3.00;2.80;;;;;;;18.32;48.73;98728.56;4946019;29;20810;-78
2022/08/14 03:35:25;;;;;;;4.17;3.20;;;;;;;18.32;48.67;98716.09;4945144;29;20948;-78
2022/08/14 03:37:51;;;;;;;4.10;3.27;;;;;;;18.30;48.83;98728.72;4945060;28;20214;-78
2022/08/14 03:40:21;;;;;;;3.97;3.57;;;;;;;18.27;49.15;98736.22;4946416;29;20592;-78
2022/08/14 03:42:47;;;;;;;2.73;2.53;;;;;;;18.24;49.20;98739.22;4945077;29;20415;-79
2022/08/14 03:45:14;;;;;;;3.40;3.10;;;;;;;18.18;49.36;98740.72;4942515;29;20938;-79
2022/08/14 03:47:40;;;;;;;3.33;3.03;;;;;;;18.14;49.53;98740.22;4944031;28;20471;-79
2022/08/14 03:50:10;;;;;;;4.70;2.90;;;;;;;18.10;49.66;98741.56;4949284;29;20420;-79
2022/08/14 03:52:41;;;;;;;3.17;2.87;;;;;;;18.05;49.40;98746.53;4951290;29;20426;-79
2022/08/14 03:55:10;;;;;;;3.50;3.20;;;;;;;18.06;49.50;98742.03;4952557;29;20933;-79
2022/08/14 03:57:37;;;;;;;4.43;3.30;;;;;;;18.07;49.42;98741.06;4946577;28;20512;-78
2022/08/14 04:00:09;;;;;;;3.30;3.10;;;;;;;18.07;49.45;98744.53;4940775;29;20856;-79
2022/08/14 04:02:38;;;;;;;3.10;2.90;;;;;;;18.09;49.45;98736.38;4940857;29;20409;-78
2022/08/14 04:05:08;;;;;;;3.00;2.73;;;;;;;17.98;49.97;98750.00;4937176;29;20464;-79
2022/08/14 04:07:34;;;;;;;2.83;2.63;;;;;;;17.86;50.02;98747.69;4941508;28;21056;-78
2022/08/14 04:10:00;;;;;;;3.80;3.17;;;;;;;17.73;50.39;98757.94;4946542;29;20452;-78
2022/08/14 04:12:26;;;;;;;2.70;2.50;;;;;;;17.67;50.61;98769.22;4948920;29;20499;-78
2022/08/14 04:14:52;;;;;;;3.60;3.30;;;;;;;17.60;50.89;98770.88;4952233;29;20201;-78
2022/08/14 04:17:18;;;;;;;3.50;3.20;;;;;;;17.54;50.65;98776.84;4946465;29;20206;-79
2022/08/14 04:19:45;;;;;;;4.13;3.77;;;;;;;17.51;50.91;98791.25;4937629;29;20568;-79
2022/08/14 04:22:12;;;;;;;3.97;3.67;;;;;;;17.52;50.80;98789.44;4938689;28;20479;-79
2022/08/14 04:24:39;;;;;;;4.17;3.80;;;;;;;17.54;50.80;98785.63;4937626;29;20933;-79
2022/08/14 04:27:10;;;;;;;9.00;8.20;;;;;;;17.57;50.62;98779.97;4944474;29;20485;-79
2022/08/14 04:29:40;;;;;;;8.33;4.90;;;;;;;17.62;50.45;98782.97;4949126;29;21097;-79
2022/08/14 04:32:10;;;;;;;3.90;3.60;;;;;;;17.63;50.80;98775.84;4945611;29;20449;-79
2022/08/14 04:34:38;;;;;;;5.33;3.70;;;;;;;17.61;50.78;98777.84;4950848;29;20453;-79
2022/08/14 04:45:19;;;;;;;3.87;3.57;;;;;;;17.58;50.84;98780.81;4952133;29;20473;-79
2022/08/14 04:50:28;;;;;;;4.70;4.30;;;;;;;17.70;50.63;98787.50;4954190;29;20458;-78
2022/08/14 04:52:55;;;;;;;3.80;3.50;;;;;;;17.70;50.65;98793.63;4950424;29;20451;-79
2022/08/14 04:55:20;;;;;;;4.20;3.77;;;;;;;17.70;50.74;98790.16;4946602;29;20205;-79
2022/08/14 04:57:46;;;;;;;4.70;3.33;;;;;;;17.69;50.68;98796.47;4953907;28;20492;-79
2022/08/14 05:00:12;;;;;;;3.70;3.30;;;;;;;17.73;50.54;98808.41;4937994;29;20194;-79
2022/08/14 05:02:37;;;;;;;3.93;3.30;;;;;;;17.68;50.87;98806.22;4941492;29;20449;-79
2022/08/14 05:05:03;;;;;;;4.27;3.17;;;;;;;17.63;51.07;98800.59;4949337;29;20213;-78
2022/08/14 05:07:28;;;;;;;4.33;3.70;;;;;;;17.68;50.80;98802.75;4951801;28;20224;-79
2022/08/14 05:09:54;;;;;;;2.97;2.77;;;;;;;17.96;50.32;98802.47;4940901;29;20186;-79
2022/08/14 05:12:20;;;;;;;4.57;4.00;;;;;;;18.37;49.56;98802.53;4941476;29;20279;-79
2022/08/14 05:14:45;;;;;;;5.47;3.37;;;;;;;18.70;48.38;98804.13;4946107;29;20200;-79
2022/08/14 05:17:11;;;;;;;3.00;2.73;;;;;;;19.08;47.83;98798.25;4943757;29;20471;-79
2022/08/14 05:19:37;;;;;;;3.77;3.47;;;;;;;19.47;47.01;98800.91;4953931;29;20200;-79
2022/08/14 05:22:02;;;;;;;3.53;3.00;;;;;;;19.63;46.49;98792.81;4950167;29;20987;-79
2022/08/14 05:24:28;;;;;;;4.27;3.87;;;;;;;19.82;45.86;98794.25;4947511;29;20201;-79
2022/08/14 05:26:54;;;;;;;4.70;3.60;;;;;;;20.23;45.22;98785.09;4951037;28;20364;-79
2022/08/14 05:29:19;;;;;;;4.27;3.47;;;;;;;20.75;43.81;98762.94;4953639;29;20511;-79
2022/08/14 05:31:45;;;;;;;3.70;2.80;;;;;;;21.21;42.89;98758.22;4951721;29;20190;-79
2022/08/14 05:34:10;;;;;;;3.33;2.77;;;;;;;21.54;42.27;98746.28;4953066;28;20266;-79
2022/08/14 05:36:36;;;;;;;4.20;3.80;;;;;;;21.69;42.15;98743.59;4955360;28;20290;-79
2022/08/14 05:39:02;;;;;;;3.70;3.27;;;;;;;21.53;42.12;98736.63;4944603;29;20254;-79
2022/08/14 05:41:28;;;;;;;3.30;3.00;;;;;;;20.85;43.16;98734.16;4946290;29;20660;-79
2022/08/14 05:43:53;;;;;;;3.30;3.00;;;;;;;20.35;44.52;98735.63;4942509;29;20428;-79
2022/08/14 05:46:22;;;;;;;3.63;3.33;;;;;;;20.19;44.74;98733.94;4945847;29;20217;-79
2022/08/14 05:48:53;;;;;;;3.97;3.57;;;;;;;20.33;44.48;98717.16;4940703;29;20605;-79
2022/08/14 05:51:20;;;;;;;3.80;3.50;;;;;;;20.69;43.56;98710.31;4955768;29;20466;-79
2022/08/14 05:53:47;;;;;;;3.83;3.53;;;;;;;21.16;42.64;98706.38;4947498;29;20531;-79
2022/08/14 05:56:13;;;;;;;4.77;3.57;;;;;;;21.60;41.72;98698.28;4948782;28;20829;-79
2022/08/14 05:58:38;;;;;;;3.60;3.30;;;;;;;22.13;40.88;98692.53;4936874;29;20452;-79
2022/08/14 06:01:04;;;;;;;4.20;3.60;;;;;;;22.62;40.36;98686.31;4935317;29;20195;-79
2022/08/14 06:03:29;;;;;;;3.53;3.10;;;;;;;23.14;39.29;98678.72;4935849;29;20654;-79
2022/08/14 06:05:55;;;;;;;4.40;4.00;;;;;;;23.72;37.85;98672.91;4953822;29;20191;-79
2022/08/14 06:08:29;;;;;;;3.83;3.30;;;;;;;24.20;37.04;98664.63;4954816;28;20313;-79
2022/08/14 06:11:01;;;;;;;3.90;3.63;;;;;;;24.38;36.81;98662.09;4955037;29;20229;-79
2022/08/14 06:13:28;;;;;;;3.20;2.90;;;;;;;24.62;36.43;98660.63;4951054;29;20476;-79
2022/08/14 06:15:53;;;;;;;11.23;4.20;;;;;;;24.97;35.95;98659.47;4934047;29;20491;-79
2022/08/14 06:18:19;;;;;;;3.73;3.43;;;;;;;25.26;35.57;98650.06;4937478;28;20479;-79
2022/08/14 06:20:44;;;;;;;4.20;3.80;;;;;;;25.63;34.83;98652.91;4943621;29;20709;-79
2022/08/14 06:23:10;;;;;;;3.20;2.97;;;;;;;26.04;34.57;98652.41;4946995;29;20218;-79
2022/08/14 06:25:35;;;;;;;3.50;3.20;;;;;;;26.57;33.75;98667.22;4955457;29;20685;-79
2022/08/14 06:28:01;;;;;;;3.10;2.90;;;;;;;26.96;32.72;98675.91;4937101;29;20253;-79
2022/08/14 06:30:29;;;;;;;3.40;3.13;;;;;;;27.07;32.61;98678.63;4935696;29;20203;-79
2022/08/14 06:32:55;;;;;;;4.37;3.40;;;;;;;27.14;31.80;98679.38;4944783;29;20206;-79
2022/08/14 06:35:21;;;;;;;3.90;3.60;;;;;;;27.35;31.34;98670.00;4955163;29;20505;-79
2022/08/14 06:37:52;;;;;;;3.70;3.40;;;;;;;27.51;31.07;98668.50;4936638;29;20270;-79
2022/08/14 06:40:22;;;;;;;4.53;2.80;;;;;;;27.81;30.57;98673.06;4944691;29;20555;-79
2022/08/14 06:42:48;;;;;;;3.23;3.03;;;;;;;28.12;29.87;98668.41;4948689;29;20989;-79
2022/08/14 06:45:13;;;;;;;4.17;3.30;;;;;;;28.47;29.05;98663.03;4954473;28;20461;-79
2022/08/14 06:47:41;;;;;;;4.03;3.60;;;;;;;28.81;28.72;98658.63;4942682;29;20569;-79
2022/08/14 06:50:09;;;;;;;3.40;3.10;;;;;;;29.08;28.13;98658.91;4940681;29;20214;-79
2022/08/14 06:52:36;;;;;;;3.97;3.53;;;;;;;29.16;28.17;98649.56;4951096;29;20907;-79
2022/08/14 06:55:02;;;;;;;3.27;2.97;;;;;;;29.13;27.76;98641.94;4951037;29;20569;-79
2022/08/14 06:57:36;;;;;;;3.97;3.30;;;;;;;29.10;27.53;98655.94;4954621;28;20517;-79
2022/08/14 07:00:03;;;;;;;5.90;3.57;;;;;;;29.13;27.47;98655.47;4954481;29;20465;-79
2022/08/14 07:07:57;;;;;;;2.93;2.73;;;;;;;29.64;26.44;98656.41;4953049;28;20845;-79
2022/08/14 07:10:22;;;;;;;3.60;3.30;;;;;;;29.80;26.46;98664.78;4953250;29;20959;-79
2022/08/14 07:12:47;;;;;;;4.13;3.10;;;;;;;29.89;25.94;98671.44;4939192;29;20206;-79
2022/08/14 07:15:13;;;;;;;3.40;3.00;;;;;;;30.02;25.84;98664.88;4948729;29;20502;-79
2022/08/14 07:17:49;;;;;;;4.17;3.73;;;;;;;30.15;25.27;98667.25;4953123;28;20237;-79
2022/08/14 07:20:17;;;;;;;3.00;2.80;;;;;;;30.32;25.04;98659.91;4946653;29;20212;-79
2022/08/14 07:22:44;;;;;;;11.00;3.87;;;;;;;30.25;25.18;98663.91;4946896;29;20459;-79
2022/08/14 07:25:09;;;;;;;2.67;2.47;;;;;;;30.20;25.10;98668.13;4947632;29;20582;-79
2022/08/14 07:27:35;;;;;;;3.20;2.80;;;;;;;30.19;25.02;98671.91;4945266;28;20956;-78
2022/08/14 07:30:03;;;;;;;3.33;3.07;;;;;;;30.04;25.12;98662.75;4944032;29;20216;-78
2022/08/14 07:32:29;;;;;;;4.13;3.72;;;;;;;30.09;25.26;98671.75;4943989;29;20519;-78
2022/08/14 07:34:54;;;;;;;4.63;2.60;;;;;;;30.18;25.14;98670.25;4941817;29;20337;-78
2022/08/14 07:37:19;;;;;;;3.90;3.60;;;;;;;30.15;25.58;98673.47;4937612;29;20239;-79
2022/08/14 07:39:45;;;;;;;2.80;2.47;;;;;;;30.31;25.20;98673.72;4941488;29;20212;-79
2022/08/14 07:42:11;;;;;;;3.00;2.80;;;;;;;30.50;25.00;98674.28;4943972;29;20710;-79
2022/08/14 07:44:37;;;;;;;3.10;2.90;;;;;;;30.72;25.13;98679.72;4948680;29;20491;-78
2022/08/14 07:47:05;;;;;;;2.97;2.60;;;;;;;31.02;24.43;98685.53;4968806;23;20250;-90
2022/08/14 07:49:33;;;;;;;3.57;3.23;;;;;;;31.40;23.94;98686.50;4958027;29;20621;-90
2022/08/14 07:52:00;;;;;;;3.90;2.70;;;;;;;31.56;23.76;98694.81;4955919;29;20729;-88
2022/08/14 07:54:26;;;;;;;3.43;3.13;;;;;;;31.89;23.43;98701.88;4956176;28;20481;-88
2022/08/14 07:56:51;;;;;;;3.00;2.80;;;;;;;32.10;22.86;98701.00;4952072;28;20493;-88
2022/08/14 07:59:19;;;;;;;2.90;2.70;;;;;;;32.21;23.39;98692.94;4932554;29;20247;-90
2022/08/14 08:01:45;;;;;;;3.80;3.50;;;;;;;32.41;22.72;98684.91;4948938;29;20293;-88
2022/08/14 08:04:12;;;;;;;3.23;2.93;;;;;;;32.23;23.13;98661.69;4948825;28;20840;-88
2022/08/14 08:06:38;;;;;;;3.33;3.13;;;;;;;31.65;23.83;98655.25;4948467;28;20797;-88
2022/08/14 08:09:04;;;;;;;3.83;3.23;;;;;;;31.24;23.85;98649.41;4948545;29;20489;-89
2022/08/14 08:11:34;;;;;;;3.77;3.37;;;;;;;31.25;24.09;98656.50;4949136;29;20285;-88
2022/08/14 08:14:05;;;;;;;3.50;2.90;;;;;;;31.42;23.83;98659.94;4948050;28;20932;-88
2022/08/14 08:16:32;;;;;;;5.37;3.33;;;;;;;31.60;23.89;98666.09;4947940;28;20521;-89
2022/08/14 08:18:58;;;;;;;5.30;3.37;;;;;;;31.62;23.63;98662.03;4948629;29;20863;-90
2022/08/14 08:21:25;;;;;;;3.10;2.90;;;;;;;31.78;23.25;98662.97;4948581;29;20490;-88
2022/08/14 08:23:51;;;;;;;3.63;3.33;;;;;;;31.90;23.24;98663.63;4930369;29;20214;-88
2022/08/14 08:26:17;;;;;;;2.90;2.70;;;;;;;32.13;23.16;98678.75;4948426;28;20467;-90
2022/08/14 08:28:42;;;;;;;3.00;2.80;;;;;;;32.32;23.05;98681.03;4951675;29;20206;-89
2022/08/14 08:31:10;;;;;;;4.17;3.07;;;;;;;32.40;23.03;98683.25;4950726;29;20832;-88
2022/08/14 08:33:37;;;;;;;4.65;3.22;;;;;;;32.39;23.36;98679.72;4949939;29;20495;-89
2022/08/14 08:36:07;;;;;;;3.67;3.37;;;;;;;32.05;24.30;98683.84;4951212;28;20215;-88
2022/08/14 08:38:35;;;;;;;3.30;3.00;;;;;;;32.08;23.99;98686.88;4965600;28;21007;-90
2022/08/14 08:41:01;;;;;;;3.20;2.90;;;;;;;32.20;23.97;98683.97;4948731;28;20494;-90
2022/08/14 08:43:34;;;;;;;4.93;3.50;;;;;;;32.06;24.47;98675.44;4958037;28;20254;-89
2022/08/14 08:46:03;;;;;;;3.00;2.80;;;;;;;31.79;24.33;98659.19;4953723;28;20486;-89
2022/08/14 08:48:42;;;;;;;2.90;2.70;;;;;;;31.79;25.01;98645.63;4960521;28;20499;-88
2022/08/14 08:51:09;;;;;;;3.20;2.90;;;;;;;31.77;25.17;98636.91;4955870;28;20477;-89
2022/08/14 08:53:35;;;;;;;2.83;2.63;;;;;;;31.47;24.98;98643.72;4962971;28;20462;-89
2022/08/14 08:56:04;;;;;;;5.47;3.20;;;;;;;31.01;25.68;98640.50;4934421;29;20466;-90
2022/08/14 08:58:29;;;;;;;3.93;3.57;;;;;;;30.83;25.92;98644.34;4952566;28;20463;-89
2022/08/14 09:00:57;;;;;;;3.40;3.00;;;;;;;30.74;26.25;98640.44;4959532;28;20492;-88
2022/08/14 09:03:25;;;;;;;3.20;2.90;;;;;;;30.83;26.33;98638.13;4960918;28;20947;-88
2022/08/14 09:05:55;;;;;;;4.03;3.77;;;;;;;30.96;25.80;98632.31;4954328;28;20737;-88
2022/08/14 09:08:29;;;;;;;4.13;2.93;;;;;;;31.09;25.71;98631.91;4956910;28;20462;-91
2022/08/14 09:10:56;;;;;;;3.10;2.90;;;;;;;31.04;25.32;98631.84;4951170;28;20477;-89
2022/08/14 09:13:25;;;;;;;3.50;3.27;;;;;;;30.91;25.90;98634.16;4959972;28;20461;-90
2022/08/14 09:15:53;;;;;;;3.50;3.10;;;;;;;30.99;25.93;98633.69;4949256;28;20451;-87
2022/08/14 09:18:25;;;;;;;3.00;2.80;;;;;;;31.19;25.25;98628.50;4950687;29;20477;-88
2022/08/14 09:20:53;;;;;;;3.73;3.07;;;;;;;31.33;24.96;98626.19;4945275;29;20554;-88
2022/08/14 09:23:22;;;;;;;5.50;2.80;;;;;;;31.30;24.94;98615.84;4960455;29;20434;-88
2022/08/14 09:25:50;;;;;;;3.27;2.97;;;;;;;31.23;25.05;98613.31;4932696;28;20553;-90
2022/08/14 09:28:18;;;;;;;4.43;2.57;;;;;;;31.29;24.98;98619.63;4935589;29;20490;-88
2022/08/14 09:30:47;;;;;;;3.00;2.80;;;;;;;31.40;24.60;98609.72;4935598;29;20931;-88
2022/08/14 09:33:54;;;;;;;6.10;3.40;;;;;;;31.39;23.76;98611.59;4933436;29;20487;-89
2022/08/14 09:36:24;;;;;;;2.60;2.33;;;;;;;31.39;23.83;98610.78;4912988;29;20218;-88
2022/08/14 09:39:10;;;;;;;;;;;;;;;;;;;;;
2022/08/14 09:42:07;;;;;;;2.80;2.60;;;;;;;31.80;23.00;98603.78;4923693;29;20597;-89
2022/08/14 09:44:54;;;;;;;3.60;3.30;;;;;;;31.71;23.31;98610.78;4934427;28;20478;-90
2022/08/14 09:47:55;;;;;;;3.10;2.90;;;;;;;31.84;22.89;98599.50;4919735;28;20479;-84
2022/08/14 09:50:25;;;;;;;4.00;2.93;;;;;;;31.75;23.20;98595.59;4915795;29;20957;-86
2022/08/14 09:53:02;;;;;;;6.47;3.30;;;;;;;31.68;23.00;98592.31;4932749;29;20850;-86
2022/08/14 09:55:33;;;;;;;3.33;2.77;;;;;;;31.78;23.23;98588.84;4918182;28;20864;-85
2022/08/14 09:58:34;;;;;;;3.07;2.77;;;;;;;32.02;22.78;98583.88;4922929;29;20471;-85
2022/08/14 10:01:14;;;;;;;2.17;1.97;;;;;;;32.24;22.13;98587.25;4920894;29;20585;-85
2022/08/14 10:03:58;;;;;;;3.77;2.90;;;;;;;32.27;21.77;98575.88;4929961;29;20489;-87
2022/08/14 10:06:26;;;;;;;2.80;2.50;;;;;;;32.30;22.11;98583.50;4915607;28;20474;-85
2022/08/14 10:09:05;;;;;;;2.40;2.20;;;;;;;32.33;21.51;98582.97;4921299;29;20530;-85
2022/08/14 10:11:36;;;;;;;2.93;2.67;;;;;;;32.55;21.89;98577.38;4935255;29;20536;-85
2022/08/14 10:14:18;;;;;;;4.20;2.80;;;;;;;32.71;22.00;98580.16;4919878;28;20933;-86
2022/08/14 10:16:47;;;;;;;4.53;3.30;;;;;;;32.78;21.49;98581.53;4928517;29;20477;-84
2022/08/14 10:19:20;;;;;;;3.33;2.30;;;;;;;32.83;21.78;98591.59;4928333;29;20522;-86
2022/08/14 10:22:00;;;;;;;3.00;2.70;;;;;;;32.90;21.32;98588.63;4937561;28;21039;-85
2022/08/14 10:24:29;;;;;;;2.60;2.40;;;;;;;32.80;21.16;98587.50;4939009;28;20475;-85
2022/08/14 10:26:56;;;;;;;2.63;2.43;;;;;;;32.57;20.80;98583.34;4935813;28;20474;-85
2022/08/14 10:29:38;;;;;;;3.80;2.83;;;;;;;32.54;21.24;98586.63;4929553;28;20465;-87
2022/08/14 10:32:04;;;;;;;3.23;2.93;;;;;;;32.77;21.16;98581.78;4923471;29;20462;-85
2022/08/14 10:34:35;;;;;;;2.17;1.97;;;;;;;32.70;21.40;98581.22;4932310;28;20455;-85
2022/08/14 10:37:19;;;;;;;2.70;2.53;;;;;;;32.60;21.58;98568.41;4922881;28;20553;-85
2022/08/14 10:39:59;;;;;;;2.37;2.10;;;;;;;32.67;20.33;98573.59;4940776;29;20490;-86
2022/08/14 10:42:38;;;;;;;2.40;2.20;;;;;;;32.68;20.25;98567.91;4934042;29;20556;-86
2022/08/14 10:45:19;;;;;;;2.87;2.57;;;;;;;32.70;20.63;98563.00;4923801;28;20473;-86
2022/08/14 10:47:49;;;;;;;2.50;2.30;;;;;;;32.89;20.75;98557.06;4926442;28;21033;-85
2022/08/14 10:50:16;;;;;;;3.20;2.90;;;;;;;32.94;20.54;98552.44;4940672;29;20485;-85
2022/08/14 10:52:46;;;;;;;2.60;2.40;;;;;;;33.06;20.21;98554.94;4939312;29;20469;-85
2022/08/14 10:55:18;;;;;;;3.10;2.27;;;;;;;33.21;19.98;98562.31;4930560;28;20499;-86
2022/08/14 10:57:49;;;;;;;3.40;2.83;;;;;;;33.23;20.11;98554.69;4929882;28;20466;-86
2022/08/14 11:00:22;;;;;;;2.00;1.80;;;;;;;33.34;19.91;98552.78;4936500;29;21228;-88
2022/08/14 11:03:20;;;;;;;2.20;2.00;;;;;;;33.41;19.87;98554.16;4935616;29;20696;-89
2022/08/14 11:05:49;;;;;;;2.10;1.90;;;;;;;33.52;19.43;98549.53;4903314;29;20522;-88
2022/08/14 11:08:32;;;;;;;1.90;1.80;;;;;;;33.65;19.23;98549.00;4924414;28;20467;-89
2022/08/14 11:11:02;;;;;;;2.73;2.20;;;;;;;33.67;18.19;98551.44;4931907;29;20550;-89
2022/08/14 11:13:44;;;;;;;2.40;2.20;;;;;;;33.69;18.01;98541.88;4932706;29;20480;-89
2022/08/14 11:16:31;;;;;;;3.40;2.33;;;;;;;33.77;18.16;98553.31;4931991;28;20473;-91
2022/08/14 11:18:57;;;;;;;3.93;2.40;;;;;;;33.70;18.02;98559.88;4937643;28;20470;-91
2022/08/14 11:21:23;;;;;;;2.40;2.20;;;;;;;33.68;18.16;98556.59;4925456;29;20494;-92
2022/08/14 11:23:49;;;;;;;3.50;2.20;;;;;;;33.72;18.20;98554.16;4934365;29;20207;-89
2022/08/14 11:26:18;;;;;;;2.50;2.30;;;;;;;33.64;18.17;98555.50;4931315;28;20554;-89
2022/08/14 11:28:46;;;;;;;4.33;2.90;;;;;;;33.41;18.15;98569.69;4931545;28;20547;-88
2022/08/14 11:31:12;;;;;;;2.93;2.67;;;;;;;33.28;18.39;98554.69;4934300;28;20239;-89
2022/08/14 11:33:40;;;;;;;2.80;2.60;;;;;;;33.27;18.78;98553.88;4933242;28;20522;-92
2022/08/14 11:36:08;;;;;;;3.20;2.30;;;;;;;33.31;18.82;98554.16;4931772;28;20824;-90
2022/08/14 11:38:45;;;;;;;3.20;2.80;;;;;;;33.35;19.10;98552.53;4936593;29;21532;-88
2022/08/14 11:41:12;;;;;;;2.70;2.50;;;;;;;33.29;19.38;98542.72;4927199;28;20580;-89
2022/08/14 11:43:45;;;;;;;3.00;2.80;;;;;;;33.05;19.79;98540.53;4925919;29;20458;-89
2022/08/14 11:46:12;;;;;;;4.13;2.83;;;;;;;32.93;20.26;98544.56;4927161;28;20584;-88
2022/08/14 11:48:52;;;;;;;2.97;2.77;;;;;;;32.93;20.53;98539.13;4928326;28;20542;-89
2022/08/14 11:51:22;;;;;;;3.37;3.10;;;;;;;32.87;20.85;98541.03;4930731;28;20469;-90
2022/08/14 11:53:52;;;;;;;3.70;3.00;;;;;;;32.93;20.58;98533.69;4938224;29;20462;-91
2022/08/14 11:56:20;;;;;;;3.53;3.33;;;;;;;32.94;20.94;98525.25;4927830;28;20458;-89
2022/08/14 11:58:54;;;;;;;2.77;2.57;;;;;;;33.02;21.19;98527.44;4923771;29;20467;-89
2022/08/14 12:01:27;;;;;;;3.30;3.10;;;;;;;33.11;21.28;98524.19;4928281;28;21057;-89